createdAt,value
2018-10-07T00:00:17.663Z,1003.26
2018-10-07T00:00:58.262Z,1003.26
2018-10-07T00:01:38.798Z,1003.24
2018-10-07T00:02:19.502Z,1003.23
2018-10-07T00:03:00.072Z,1003.24
2018-10-07T00:03:40.644Z,1003.19
2018-10-07T00:04:21.199Z,1003.22
2018-10-07T00:05:01.783Z,1003.17
2018-10-07T00:05:42.339Z,1003.18
2018-10-07T00:06:22.901Z,1003.22
2018-10-07T00:07:03.469Z,1003.17
2018-10-07T00:07:44.043Z,1003.13
2018-10-07T00:08:24.611Z,1003.15
2018-10-07T00:09:05.169Z,1003.15
2018-10-07T00:09:45.726Z,1003.16
2018-10-07T00:10:26.326Z,1003.13
2018-10-07T00:11:06.883Z,1003.13
2018-10-07T00:11:47.485Z,1003.12
2018-10-07T00:12:28.042Z,1003.16
2018-10-07T00:13:08.611Z,1003.2
2018-10-07T00:13:49.159Z,1003.15
2018-10-07T00:14:29.728Z,1003.19
2018-10-07T00:15:10.280Z,1003.15
2018-10-07T00:15:50.835Z,1003.12
2018-10-07T00:16:31.387Z,1003.16
2018-10-07T00:17:11.974Z,1003.13
2018-10-07T00:17:52.570Z,1003.12
2018-10-07T00:18:33.132Z,1003.11
2018-10-07T00:19:13.728Z,1003.1
2018-10-07T00:19:54.292Z,1003.07
2018-10-07T00:20:34.856Z,1003.07
2018-10-07T00:21:16.429Z,1003.09
2018-10-07T00:21:56.979Z,1003.04
2018-10-07T00:22:37.562Z,1003.09
2018-10-07T00:23:18.123Z,1003.09
2018-10-07T00:23:58.675Z,1003.12
2018-10-07T00:24:39.237Z,1003.12
2018-10-07T00:25:19.798Z,1003.14
2018-10-07T00:26:00.368Z,1003.16
2018-10-07T00:26:40.932Z,1003.13
2018-10-07T00:27:21.529Z,1003.15
2018-10-07T00:28:02.052Z,1003.09
2018-10-07T00:28:42.621Z,1003.09
2018-10-07T00:29:23.177Z,1003.11
2018-10-07T00:30:03.753Z,1003.1
2018-10-07T00:30:44.319Z,1003.1
2018-10-07T00:31:24.897Z,1003.11
2018-10-07T00:32:05.487Z,1003.1
2018-10-07T00:32:46.042Z,1003.12
2018-10-07T00:33:26.589Z,1003.11
2018-10-07T00:34:07.147Z,1003.05
2018-10-07T00:34:47.724Z,1003.07
2018-10-07T00:35:28.355Z,1003.06
2018-10-07T00:36:08.927Z,1003.08
2018-10-07T00:36:49.495Z,1003.11
2018-10-07T00:37:30.058Z,1003.09
2018-10-07T00:38:10.625Z,1003.07
2018-10-07T00:38:51.166Z,1003.06
2018-10-07T00:39:31.748Z,1003.03
2018-10-07T00:40:12.301Z,1003.05
2018-10-07T00:40:52.855Z,1003.06
2018-10-07T00:41:33.437Z,1003.05
2018-10-07T00:42:14.053Z,1003.07
2018-10-07T00:42:54.639Z,1003.08
2018-10-07T00:43:35.205Z,1003.04
2018-10-07T00:44:15.748Z,1003.03
2018-10-07T00:44:56.304Z,1003.02
2018-10-07T00:45:36.877Z,1003.01
2018-10-07T00:46:17.450Z,1003
2018-10-07T00:46:58.005Z,1003
2018-10-07T00:47:38.642Z,1003.02
2018-10-07T00:48:19.212Z,1003.02
2018-10-07T00:48:59.762Z,1003.01
2018-10-07T00:49:40.329Z,1003.07
2018-10-07T00:50:20.988Z,1003.03
2018-10-07T00:51:01.545Z,1003.03
2018-10-07T00:51:42.109Z,1003.02
2018-10-07T00:52:22.691Z,1003.04
2018-10-07T00:53:03.266Z,1003.07
2018-10-07T00:53:43.900Z,1003.05
2018-10-07T00:54:24.448Z,1003.08
2018-10-07T00:55:05.020Z,1003.07
2018-10-07T00:55:45.604Z,1003.1
2018-10-07T00:56:26.159Z,1003.12
2018-10-07T00:57:06.716Z,1003.08
2018-10-07T00:57:47.297Z,1003.14
2018-10-07T00:58:27.879Z,1003.1
2018-10-07T00:59:08.436Z,1003.1
2018-10-07T00:59:49.061Z,1003.08
2018-10-07T01:00:29.629Z,1003.13
2018-10-07T01:01:10.194Z,1003.1
2018-10-07T01:01:50.866Z,1003.14
2018-10-07T01:02:31.355Z,1003.13
2018-10-07T01:03:11.905Z,1003.11
2018-10-07T01:03:52.463Z,1003.1
2018-10-07T01:04:33.111Z,1003.11
2018-10-07T01:05:13.692Z,1003.12
2018-10-07T01:05:54.267Z,1003.14
2018-10-07T01:06:34.826Z,1003.1
2018-10-07T01:07:15.400Z,1003.09
2018-10-07T01:07:55.976Z,1003.08
2018-10-07T01:08:36.532Z,1003.07
2018-10-07T01:09:17.102Z,1003.04
2018-10-07T01:09:57.682Z,1003.1
2018-10-07T01:10:38.238Z,1003.06
2018-10-07T01:11:18.825Z,1003.06
2018-10-07T01:11:59.401Z,1003.05
2018-10-07T01:12:39.982Z,1003.01
2018-10-07T01:13:20.551Z,1003.06
2018-10-07T01:14:01.116Z,1003.03
2018-10-07T01:14:41.673Z,1003.01
2018-10-07T01:15:22.254Z,1003
2018-10-07T01:16:02.802Z,1003
2018-10-07T01:16:43.396Z,1003.04
2018-10-07T01:17:23.943Z,1003.03
2018-10-07T01:18:04.502Z,1003.05
2018-10-07T01:18:45.084Z,1003.02
2018-10-07T01:19:25.654Z,1003.03
2018-10-07T01:20:06.219Z,1003.01
2018-10-07T01:20:46.807Z,1003.03
2018-10-07T01:21:27.396Z,1003.01
2018-10-07T01:22:07.928Z,1003.02
2018-10-07T01:22:48.482Z,1002.98
2018-10-07T01:23:29.388Z,1002.99
2018-10-07T01:24:09.951Z,1003.03
2018-10-07T01:24:50.515Z,1003
2018-10-07T01:25:31.089Z,1002.98
2018-10-07T01:26:11.649Z,1002.95
2018-10-07T01:26:52.228Z,1002.94
2018-10-07T01:27:32.796Z,1002.94
2018-10-07T01:28:13.365Z,1002.93
2018-10-07T01:28:53.928Z,1002.96
2018-10-07T01:29:34.495Z,1002.93
2018-10-07T01:30:15.085Z,1002.94
2018-10-07T01:30:55.656Z,1002.97
2018-10-07T01:31:36.277Z,1002.92
2018-10-07T01:32:16.861Z,1002.94
2018-10-07T01:32:57.402Z,1002.96
2018-10-07T01:33:37.976Z,1002.96
2018-10-07T01:34:18.526Z,1002.97
2018-10-07T01:34:59.092Z,1002.96
2018-10-07T01:35:39.667Z,1002.99
2018-10-07T01:36:20.212Z,1002.97
2018-10-07T01:37:00.774Z,1002.96
2018-10-07T01:37:41.333Z,1002.96
2018-10-07T01:38:21.940Z,1002.98
2018-10-07T01:39:02.511Z,1002.98
2018-10-07T01:39:43.076Z,1002.98
2018-10-07T01:40:23.646Z,1002.95
2018-10-07T01:41:04.201Z,1002.98
2018-10-07T01:41:44.776Z,1002.94
2018-10-07T01:42:25.367Z,1002.99
2018-10-07T01:43:05.954Z,1002.96
2018-10-07T01:43:46.513Z,1002.99
2018-10-07T01:44:27.095Z,1002.93
2018-10-07T01:45:07.656Z,1002.95
2018-10-07T01:45:48.230Z,1002.95
2018-10-07T01:46:28.806Z,1002.95
2018-10-07T01:47:09.352Z,1002.99
2018-10-07T01:47:49.919Z,1002.95
2018-10-07T01:48:30.496Z,1002.97
2018-10-07T01:49:11.061Z,1002.96
2018-10-07T01:49:51.633Z,1002.95
2018-10-07T01:50:32.191Z,1002.98
2018-10-07T01:51:12.743Z,1002.98
2018-10-07T01:51:53.302Z,1002.96
2018-10-07T01:52:33.856Z,1002.99
2018-10-07T01:53:14.501Z,1002.97
2018-10-07T01:53:55.080Z,1002.97
2018-10-07T01:54:35.634Z,1002.98
2018-10-07T01:55:16.188Z,1003.01
2018-10-07T01:55:56.737Z,1002.99
2018-10-07T01:56:37.318Z,1003.02
2018-10-07T01:57:17.892Z,1003.01
2018-10-07T01:57:58.551Z,1003
2018-10-07T01:58:39.114Z,1003.02
2018-10-07T01:59:19.725Z,1003.01
2018-10-07T02:00:00.239Z,1003.06
2018-10-07T02:00:40.808Z,1003.07
2018-10-07T02:01:21.408Z,1003.1
2018-10-07T02:02:01.978Z,1003.07
2018-10-07T02:02:42.544Z,1003.1
2018-10-07T02:03:23.099Z,1003.13
2018-10-07T02:04:03.680Z,1003.1
2018-10-07T02:04:44.256Z,1003.09
2018-10-07T02:05:24.836Z,1003.04
2018-10-07T02:06:05.388Z,1003.06
2018-10-07T02:06:45.982Z,1003.08
2018-10-07T02:07:26.544Z,1003.08
2018-10-07T02:08:07.121Z,1003.05
2018-10-07T02:08:47.674Z,1003.09
2018-10-07T02:09:28.227Z,1003.09
2018-10-07T02:10:08.783Z,1003.09
2018-10-07T02:10:49.353Z,1003.09
2018-10-07T02:11:29.907Z,1003.12
2018-10-07T02:12:10.464Z,1003.12
2018-10-07T02:12:51.146Z,1003.13
2018-10-07T02:13:31.721Z,1003.11
2018-10-07T02:14:12.343Z,1003.14
2018-10-07T02:14:52.915Z,1003.09
2018-10-07T02:15:33.484Z,1003.17
2018-10-07T02:16:14.044Z,1003.19
2018-10-07T02:16:54.625Z,1003.18
2018-10-07T02:17:35.180Z,1003.19
2018-10-07T02:18:15.761Z,1003.21
2018-10-07T02:18:56.325Z,1003.19
2018-10-07T02:19:36.940Z,1003.17
2018-10-07T02:20:17.505Z,1003.2
2018-10-07T02:20:58.071Z,1003.22
2018-10-07T02:21:38.628Z,1003.23
2018-10-07T02:22:19.203Z,1003.22
2018-10-07T02:22:59.759Z,1003.23
2018-10-07T02:23:40.333Z,1003.25
2018-10-07T02:24:20.913Z,1003.21
2018-10-07T02:25:01.491Z,1003.25
2018-10-07T02:25:42.053Z,1003.24
2018-10-07T02:26:22.607Z,1003.24
2018-10-07T02:27:03.220Z,1003.27
2018-10-07T02:27:43.770Z,1003.24
2018-10-07T02:28:24.376Z,1003.27
2018-10-07T02:29:04.917Z,1003.26
2018-10-07T02:29:45.526Z,1003.26
2018-10-07T02:30:26.181Z,1003.29
2018-10-07T02:31:06.735Z,1003.29
2018-10-07T02:31:47.390Z,1003.31
2018-10-07T02:32:27.944Z,1003.28
2018-10-07T02:33:08.500Z,1003.32
2018-10-07T02:33:49.064Z,1003.28
2018-10-07T02:34:29.612Z,1003.32
2018-10-07T02:35:10.195Z,1003.33
2018-10-07T02:35:50.755Z,1003.33
2018-10-07T02:36:31.341Z,1003.38
2018-10-07T02:37:11.957Z,1003.41
2018-10-07T02:37:52.476Z,1003.4
2018-10-07T02:38:33.053Z,1003.39
2018-10-07T02:39:13.640Z,1003.41
2018-10-07T02:39:54.200Z,1003.41
2018-10-07T02:40:34.780Z,1003.41
2018-10-07T02:41:15.366Z,1003.41
2018-10-07T02:41:55.923Z,1003.43
2018-10-07T02:42:36.534Z,1003.45
2018-10-07T02:43:17.096Z,1003.44
2018-10-07T02:43:58.021Z,1003.48
2018-10-07T02:44:38.876Z,1003.42
2018-10-07T02:45:19.435Z,1003.44
2018-10-07T02:45:59.995Z,1003.41
2018-10-07T02:46:40.559Z,1003.44
2018-10-07T02:47:21.168Z,1003.42
2018-10-07T02:48:01.793Z,1003.44
2018-10-07T02:48:42.360Z,1003.43
2018-10-07T02:49:22.999Z,1003.43
2018-10-07T02:50:03.566Z,1003.48
2018-10-07T02:50:44.137Z,1003.46
2018-10-07T02:51:24.784Z,1003.51
2018-10-07T02:52:05.337Z,1003.47
2018-10-07T02:52:45.914Z,1003.46
2018-10-07T02:53:26.573Z,1003.47
2018-10-07T02:54:07.039Z,1003.52
2018-10-07T02:54:47.603Z,1003.52
2018-10-07T02:55:28.164Z,1003.55
2018-10-07T02:56:08.739Z,1003.51
2018-10-07T02:56:49.303Z,1003.56
2018-10-07T02:57:29.866Z,1003.53
2018-10-07T02:58:10.469Z,1003.56
2018-10-07T02:58:51.051Z,1003.52
2018-10-07T02:59:31.632Z,1003.48
2018-10-07T03:00:12.197Z,1003.53
2018-10-07T03:00:52.760Z,1003.52
2018-10-07T03:01:33.318Z,1003.51
2018-10-07T03:02:13.899Z,1003.57
2018-10-07T03:02:54.458Z,1003.55
2018-10-07T03:03:35.074Z,1003.49
2018-10-07T03:04:15.635Z,1003.53
2018-10-07T03:04:56.213Z,1003.52
2018-10-07T03:05:36.783Z,1003.5
2018-10-07T03:06:17.390Z,1003.52
2018-10-07T03:06:57.965Z,1003.55
2018-10-07T03:07:38.537Z,1003.56
2018-10-07T03:08:19.139Z,1003.54
2018-10-07T03:08:59.751Z,1003.55
2018-10-07T03:09:40.379Z,1003.54
2018-10-07T03:10:20.888Z,1003.53
2018-10-07T03:11:01.466Z,1003.6
2018-10-07T03:11:42.027Z,1003.59
2018-10-07T03:12:22.611Z,1003.59
2018-10-07T03:13:03.170Z,1003.61
2018-10-07T03:13:43.826Z,1003.59
2018-10-07T03:14:24.393Z,1003.61
2018-10-07T03:15:04.947Z,1003.58
2018-10-07T03:15:45.526Z,1003.55
2018-10-07T03:16:26.084Z,1003.57
2018-10-07T03:17:06.694Z,1003.55
2018-10-07T03:17:47.254Z,1003.55
2018-10-07T03:18:27.841Z,1003.54
2018-10-07T03:19:08.387Z,1003.55
2018-10-07T03:19:49.008Z,1003.55
2018-10-07T03:20:29.571Z,1003.56
2018-10-07T03:21:10.142Z,1003.55
2018-10-07T03:21:50.746Z,1003.56
2018-10-07T03:22:31.361Z,1003.58
2018-10-07T03:23:11.930Z,1003.58
2018-10-07T03:23:52.489Z,1003.63
2018-10-07T03:24:33.054Z,1003.6
2018-10-07T03:25:13.619Z,1003.6
2018-10-07T03:25:54.196Z,1003.63
2018-10-07T03:26:34.750Z,1003.65
2018-10-07T03:27:15.318Z,1003.61
2018-10-07T03:27:55.883Z,1003.63
2018-10-07T03:28:36.448Z,1003.64
2018-10-07T03:29:17.033Z,1003.62
2018-10-07T03:29:57.560Z,1003.64
2018-10-07T03:30:38.137Z,1003.66
2018-10-07T03:31:18.713Z,1003.66
2018-10-07T03:31:59.279Z,1003.66
2018-10-07T03:32:39.864Z,1003.67
2018-10-07T03:33:20.428Z,1003.62
2018-10-07T03:34:01.007Z,1003.63
2018-10-07T03:34:41.572Z,1003.63
2018-10-07T03:35:22.154Z,1003.58
2018-10-07T03:36:02.726Z,1003.63
2018-10-07T03:36:43.299Z,1003.63
2018-10-07T03:37:23.857Z,1003.64
2018-10-07T03:38:04.423Z,1003.65
2018-10-07T03:38:44.988Z,1003.62
2018-10-07T03:39:25.550Z,1003.69
2018-10-07T03:40:06.109Z,1003.68
2018-10-07T03:40:46.667Z,1003.74
2018-10-07T03:41:27.222Z,1003.74
2018-10-07T03:42:07.787Z,1003.78
2018-10-07T03:42:48.360Z,1003.76
2018-10-07T03:43:28.927Z,1003.8
2018-10-07T03:44:09.481Z,1003.87
2018-10-07T03:44:50.063Z,1003.96
2018-10-07T03:45:30.621Z,1003.96
2018-10-07T03:46:11.174Z,1003.95
2018-10-07T03:46:51.735Z,1003.91
2018-10-07T03:47:32.282Z,1003.92
2018-10-07T03:48:12.837Z,1003.88
2018-10-07T03:48:53.433Z,1003.97
2018-10-07T03:49:33.997Z,1003.96
2018-10-07T03:50:14.571Z,1003.95
2018-10-07T03:50:55.157Z,1003.97
2018-10-07T03:51:35.721Z,1003.96
2018-10-07T03:52:16.289Z,1003.96
2018-10-07T03:52:56.873Z,1004.01
2018-10-07T03:53:37.435Z,1004.02
2018-10-07T03:54:17.989Z,1004
2018-10-07T03:54:58.529Z,1004
2018-10-07T03:55:39.102Z,1003.96
2018-10-07T03:56:19.653Z,1004
2018-10-07T03:57:00.294Z,1003.99
2018-10-07T03:57:40.791Z,1003.92
2018-10-07T03:58:21.377Z,1004.01
2018-10-07T03:59:01.932Z,1003.94
2018-10-07T03:59:42.530Z,1004
2018-10-07T04:00:23.106Z,1004.05
2018-10-07T04:01:03.680Z,1004.08
2018-10-07T04:01:44.240Z,1004.05
2018-10-07T04:02:24.802Z,1004.08
2018-10-07T04:03:05.366Z,1004.06
2018-10-07T04:03:45.960Z,1004.09
2018-10-07T04:04:26.506Z,1004.1
2018-10-07T04:05:07.080Z,1004.16
2018-10-07T04:05:47.665Z,1004.14
2018-10-07T04:06:28.221Z,1004.18
2018-10-07T04:07:08.783Z,1004.18
2018-10-07T04:07:49.354Z,1004.17
2018-10-07T04:08:29.949Z,1004.18
2018-10-07T04:09:10.539Z,1004.21
2018-10-07T04:09:51.109Z,1004.26
2018-10-07T04:10:31.665Z,1004.21
2018-10-07T04:11:12.220Z,1004.24
2018-10-07T04:11:52.823Z,1004.24
2018-10-07T04:12:33.392Z,1004.25
2018-10-07T04:13:13.978Z,1004.18
2018-10-07T04:13:54.553Z,1004.18
2018-10-07T04:14:35.103Z,1004.2
2018-10-07T04:15:15.720Z,1004.22
2018-10-07T04:15:56.287Z,1004.16
2018-10-07T04:16:36.843Z,1004.16
2018-10-07T04:17:17.440Z,1004.18
2018-10-07T04:17:58.032Z,1004.24
2018-10-07T04:18:38.657Z,1004.22
2018-10-07T04:19:19.200Z,1004.22
2018-10-07T04:19:59.765Z,1004.23
2018-10-07T04:20:40.371Z,1004.21
2018-10-07T04:21:20.934Z,1004.18
2018-10-07T04:22:01.496Z,1004.16
2018-10-07T04:22:42.065Z,1004.17
2018-10-07T04:23:22.620Z,1004.28
2018-10-07T04:24:03.201Z,1004.22
2018-10-07T04:24:43.801Z,1004.24
2018-10-07T04:25:24.353Z,1004.25
2018-10-07T04:26:04.921Z,1004.27
2018-10-07T04:26:45.483Z,1004.27
2018-10-07T04:27:26.043Z,1004.3
2018-10-07T04:28:06.609Z,1004.3
2018-10-07T04:28:47.179Z,1004.29
2018-10-07T04:29:27.745Z,1004.31
2018-10-07T04:30:08.299Z,1004.31
2018-10-07T04:30:48.851Z,1004.25
2018-10-07T04:31:29.419Z,1004.33
2018-10-07T04:32:10.156Z,1004.31
2018-10-07T04:32:51.278Z,1004.28
2018-10-07T04:33:32.027Z,1004.31
2018-10-07T04:34:12.602Z,1004.27
2018-10-07T04:34:53.375Z,1004.29
2018-10-07T04:35:33.979Z,1004.26
2018-10-07T04:36:14.552Z,1004.28
2018-10-07T04:36:55.121Z,1004.28
2018-10-07T04:37:36.339Z,1004.3
2018-10-07T04:38:16.793Z,1004.29
2018-10-07T04:38:57.453Z,1004.33
2018-10-07T04:39:38.072Z,1004.31
2018-10-07T04:40:18.732Z,1004.3
2018-10-07T04:40:59.326Z,1004.29
2018-10-07T04:41:39.883Z,1004.3
2018-10-07T04:42:20.768Z,1004.29
2018-10-07T04:43:01.393Z,1004.29
2018-10-07T04:43:41.986Z,1004.32
2018-10-07T04:44:22.583Z,1004.28
2018-10-07T04:45:03.299Z,1004.29
2018-10-07T04:45:44.427Z,1004.32
2018-10-07T04:46:26.383Z,1004.32
2018-10-07T04:47:07.319Z,1004.34
2018-10-07T04:47:48.159Z,1004.36
2018-10-07T04:48:29.038Z,1004.29
2018-10-07T04:49:09.842Z,1004.29
2018-10-07T04:49:50.550Z,1004.31
2018-10-07T04:50:31.572Z,1004.33
2018-10-07T04:51:12.497Z,1004.27
2018-10-07T04:51:53.518Z,1004.27
2018-10-07T04:52:34.499Z,1004.33
2018-10-07T04:53:15.593Z,1004.33
2018-10-07T04:53:56.395Z,1004.33
2018-10-07T04:54:37.416Z,1004.36
2018-10-07T04:55:18.987Z,1004.4
2018-10-07T04:55:59.824Z,1004.39
2018-10-07T04:56:40.782Z,1004.43
2018-10-07T04:57:21.659Z,1004.48
2018-10-07T04:58:02.775Z,1004.52
2018-10-07T04:58:43.649Z,1004.57
2018-10-07T04:59:24.640Z,1004.58
2018-10-07T05:00:05.526Z,1004.53
2018-10-07T05:00:46.407Z,1004.57
2018-10-07T05:01:27.100Z,1004.6
2018-10-07T05:02:08.119Z,1004.61
2018-10-07T05:02:48.906Z,1004.62
2018-10-07T05:03:29.870Z,1004.55
2018-10-07T05:04:11.268Z,1004.58
2018-10-07T05:04:52.678Z,1004.62
2018-10-07T05:05:33.800Z,1004.62
2018-10-07T05:06:14.608Z,1004.56
2018-10-07T05:06:55.257Z,1004.62
2018-10-07T05:07:36.198Z,1004.62
2018-10-07T05:08:16.937Z,1004.6
2018-10-07T05:08:57.668Z,1004.59
2018-10-07T05:09:38.258Z,1004.64
2018-10-07T05:10:18.856Z,1004.63
2018-10-07T05:10:59.436Z,1004.65
2018-10-07T05:11:40.000Z,1004.66
2018-10-07T05:12:20.694Z,1004.66
2018-10-07T05:13:01.160Z,1004.67
2018-10-07T05:13:41.715Z,1004.74
2018-10-07T05:14:22.288Z,1004.71
2018-10-07T05:15:02.989Z,1004.73
2018-10-07T05:15:43.946Z,1004.73
2018-10-07T05:16:24.825Z,1004.71
2018-10-07T05:17:05.519Z,1004.68
2018-10-07T05:17:46.076Z,1004.71
2018-10-07T05:18:26.666Z,1004.74
2018-10-07T05:19:07.426Z,1004.77
2018-10-07T05:19:48.109Z,1004.77
2018-10-07T05:20:28.853Z,1004.8
2018-10-07T05:21:10.139Z,1004.83
2018-10-07T05:21:50.865Z,1004.9
2018-10-07T05:22:31.742Z,1004.87
2018-10-07T05:23:12.319Z,1004.9
2018-10-07T05:23:52.929Z,1004.84
2018-10-07T05:24:33.948Z,1004.9
2018-10-07T05:25:14.641Z,1004.95
2018-10-07T05:25:55.445Z,1004.98
2018-10-07T05:26:36.541Z,1005.07
2018-10-07T05:27:17.125Z,1005.09
2018-10-07T05:27:57.703Z,1005.12
2018-10-07T05:28:39.396Z,1005.12
2018-10-07T05:29:20.290Z,1005.1
2018-10-07T05:30:01.466Z,1005.13
2018-10-07T05:30:42.420Z,1005.14
2018-10-07T05:31:23.028Z,1005.11
2018-10-07T05:32:03.614Z,1005.12
2018-10-07T05:32:45.257Z,1005.15
2018-10-07T05:33:26.261Z,1005.12
2018-10-07T05:34:06.945Z,1005.15
2018-10-07T05:34:47.720Z,1005.07
2018-10-07T05:35:28.450Z,1005.1
2018-10-07T05:36:09.101Z,1005.13
2018-10-07T05:36:49.799Z,1005.14
2018-10-07T05:37:30.588Z,1005.15
2018-10-07T05:38:11.249Z,1005.11
2018-10-07T05:38:52.127Z,1005.13
2018-10-07T05:39:32.958Z,1005.16
2018-10-07T05:40:14.016Z,1005.13
2018-10-07T05:40:54.717Z,1005.18
2018-10-07T05:41:35.280Z,1005.19
2018-10-07T05:42:16.002Z,1005.18
2018-10-07T05:42:56.906Z,1005.23
2018-10-07T05:43:37.499Z,1005.27
2018-10-07T05:44:18.313Z,1005.27
2018-10-07T05:44:59.331Z,1005.32
2018-10-07T05:45:40.109Z,1005.37
2018-10-07T05:46:20.711Z,1005.34
2018-10-07T05:47:01.921Z,1005.33
2018-10-07T05:47:42.262Z,1005.3
2018-10-07T05:48:23.551Z,1005.31
2018-10-07T05:49:05.179Z,1005.3
2018-10-07T05:49:46.022Z,1005.34
2018-10-07T05:50:26.701Z,1005.34
2018-10-07T05:51:07.500Z,1005.37
2018-10-07T05:51:48.290Z,1005.35
2018-10-07T05:52:28.981Z,1005.45
2018-10-07T05:53:09.542Z,1005.49
2018-10-07T05:53:50.151Z,1005.52
2018-10-07T05:54:30.760Z,1005.51
2018-10-07T05:55:11.339Z,1005.56
2018-10-07T05:55:52.016Z,1005.59
2018-10-07T05:56:32.949Z,1005.6
2018-10-07T05:57:14.074Z,1005.57
2018-10-07T05:57:54.891Z,1005.61
2018-10-07T05:58:35.809Z,1005.65
2018-10-07T05:59:16.539Z,1005.61
2018-10-07T05:59:57.203Z,1005.64
2018-10-07T06:00:37.785Z,1005.68
2018-10-07T06:01:18.507Z,1005.72
2018-10-07T06:01:59.127Z,1005.74
2018-10-07T06:02:39.751Z,1005.78
2018-10-07T06:03:20.575Z,1005.82
2018-10-07T06:04:01.372Z,1005.86
2018-10-07T06:04:41.959Z,1005.78
2018-10-07T06:05:22.542Z,1005.81
2018-10-07T06:06:03.463Z,1005.77
2018-10-07T06:06:44.322Z,1005.86
2018-10-07T06:07:24.889Z,1005.85
2018-10-07T06:08:05.500Z,1005.91
2018-10-07T06:08:46.207Z,1005.89
2018-10-07T06:09:27.035Z,1005.87
2018-10-07T06:10:08.539Z,1005.86
2018-10-07T06:10:49.324Z,1005.82
2018-10-07T06:11:30.018Z,1005.84
2018-10-07T06:12:10.782Z,1005.8
2018-10-07T06:12:51.437Z,1005.88
2018-10-07T06:13:32.275Z,1005.92
2018-10-07T06:14:13.174Z,1005.94
2018-10-07T06:14:53.789Z,1005.96
2018-10-07T06:15:34.373Z,1006.01
2018-10-07T06:16:14.979Z,1005.98
2018-10-07T06:16:55.553Z,1006.02
2018-10-07T06:17:36.118Z,1005.98
2018-10-07T06:18:16.722Z,1005.93
2018-10-07T06:18:57.263Z,1005.95
2018-10-07T06:19:37.852Z,1005.95
2018-10-07T06:20:18.434Z,1006
2018-10-07T06:20:59.009Z,1006.04
2018-10-07T06:21:39.657Z,1006.07
2018-10-07T06:22:21.154Z,1006.1
2018-10-07T06:23:01.906Z,1006.09
2018-10-07T06:23:42.695Z,1006.12
2018-10-07T06:24:23.379Z,1006.15
2018-10-07T06:25:04.239Z,1006.17
2018-10-07T06:25:45.065Z,1006.21
2018-10-07T06:26:26.469Z,1006.25
2018-10-07T06:27:07.084Z,1006.26
2018-10-07T06:27:48.768Z,1006.32
2018-10-07T06:28:29.452Z,1006.33
2018-10-07T06:29:10.010Z,1006.4
2018-10-07T06:29:50.621Z,1006.44
2018-10-07T06:30:31.124Z,1006.47
2018-10-07T06:31:11.684Z,1006.47
2018-10-07T06:31:52.291Z,1006.65
2018-10-07T06:32:32.857Z,1006.61
2018-10-07T06:33:13.441Z,1006.54
2018-10-07T06:33:53.998Z,1006.61
2018-10-07T06:34:34.551Z,1006.57
2018-10-07T06:35:15.098Z,1006.59
2018-10-07T06:35:55.652Z,1006.66
2018-10-07T06:36:36.245Z,1006.58
2018-10-07T06:37:16.902Z,1006.64
2018-10-07T06:37:57.469Z,1006.65
2018-10-07T06:38:38.043Z,1006.65
2018-10-07T06:39:18.580Z,1006.63
2018-10-07T06:39:59.196Z,1006.73
2018-10-07T06:40:39.732Z,1006.77
2018-10-07T06:41:20.348Z,1006.76
2018-10-07T06:42:00.875Z,1006.74
2018-10-07T06:42:41.450Z,1006.79
2018-10-07T06:43:22.054Z,1006.76
2018-10-07T06:44:02.605Z,1006.75
2018-10-07T06:44:43.178Z,1006.77
2018-10-07T06:45:23.836Z,1006.75
2018-10-07T06:46:04.324Z,1006.79
2018-10-07T06:46:44.917Z,1006.79
2018-10-07T06:47:25.519Z,1006.82
2018-10-07T06:48:06.076Z,1006.84
2018-10-07T06:48:46.656Z,1006.84
2018-10-07T06:49:27.817Z,1006.82
2018-10-07T06:50:08.369Z,1006.86
2018-10-07T06:50:49.327Z,1006.86
2018-10-07T06:51:31.062Z,1006.85
2018-10-07T06:52:12.014Z,1006.88
2018-10-07T06:52:53.847Z,1006.94
2018-10-07T06:53:34.687Z,1006.89
2018-10-07T06:54:15.585Z,1006.94
2018-10-07T06:54:56.506Z,1007.04
2018-10-07T06:55:37.407Z,1007.04
2018-10-07T06:56:18.036Z,1007.09
2018-10-07T06:56:58.599Z,1007.08
2018-10-07T06:57:39.170Z,1007.05
2018-10-07T06:58:19.856Z,1007.03
2018-10-07T06:59:00.410Z,1007.08
2018-10-07T06:59:41.013Z,1007.08
2018-10-07T07:00:21.546Z,1007.09
2018-10-07T07:01:02.123Z,1007.12
2018-10-07T07:01:42.816Z,1007.15
2018-10-07T07:02:23.607Z,1007.16
2018-10-07T07:03:04.234Z,1007.14
2018-10-07T07:03:44.801Z,1007.16
2018-10-07T07:04:25.369Z,1007.17
2018-10-07T07:05:06.015Z,1007.26
2018-10-07T07:05:46.581Z,1007.25
2018-10-07T07:06:27.191Z,1007.23
2018-10-07T07:07:07.730Z,1007.19
2018-10-07T07:07:48.318Z,1007.23
2018-10-07T07:08:28.876Z,1007.24
2018-10-07T07:09:09.444Z,1007.27
2018-10-07T07:09:50.024Z,1007.26
2018-10-07T07:10:30.584Z,1007.26
2018-10-07T07:11:11.179Z,1007.32
2018-10-07T07:11:51.736Z,1007.33
2018-10-07T07:12:32.303Z,1007.32
2018-10-07T07:13:12.878Z,1007.38
2018-10-07T07:13:53.429Z,1007.37
2018-10-07T07:14:33.980Z,1007.46
2018-10-07T07:15:14.578Z,1007.45
2018-10-07T07:15:55.118Z,1007.48
2018-10-07T07:16:35.691Z,1007.5
2018-10-07T07:17:16.252Z,1007.56
2018-10-07T07:17:56.857Z,1007.58
2018-10-07T07:18:37.412Z,1007.61
2018-10-07T07:19:17.984Z,1007.6
2018-10-07T07:19:58.675Z,1007.64
2018-10-07T07:20:39.120Z,1007.64
2018-10-07T07:21:19.683Z,1007.71
2018-10-07T07:22:00.233Z,1007.74
2018-10-07T07:22:40.783Z,1007.76
2018-10-07T07:23:21.356Z,1007.78
2018-10-07T07:24:01.925Z,1007.78
2018-10-07T07:24:42.499Z,1007.73
2018-10-07T07:25:23.074Z,1007.79
2018-10-07T07:26:03.676Z,1007.82
2018-10-07T07:26:44.294Z,1007.87
2018-10-07T07:27:24.841Z,1007.88
2018-10-07T07:28:05.397Z,1007.96
2018-10-07T07:28:45.955Z,1007.93
2018-10-07T07:29:26.527Z,1007.92
2018-10-07T07:30:07.084Z,1007.98
2018-10-07T07:30:47.651Z,1007.96
2018-10-07T07:31:28.295Z,1007.94
2018-10-07T07:32:08.760Z,1007.98
2018-10-07T07:32:49.337Z,1008
2018-10-07T07:33:29.894Z,1008
2018-10-07T07:34:10.469Z,1008.05
2018-10-07T07:34:51.040Z,1008.03
2018-10-07T07:35:31.637Z,1008.03
2018-10-07T07:36:12.171Z,1008.09
2018-10-07T07:36:52.866Z,1008.09
2018-10-07T07:37:33.314Z,1008.09
2018-10-07T07:38:13.881Z,1008.07
2018-10-07T07:38:54.486Z,1008.17
2018-10-07T07:39:35.040Z,1008.18
2018-10-07T07:40:15.621Z,1008.19
2018-10-07T07:40:56.169Z,1008.21
2018-10-07T07:41:36.745Z,1008.32
2018-10-07T07:42:17.355Z,1008.25
2018-10-07T07:42:57.846Z,1008.3
2018-10-07T07:43:38.407Z,1008.29
2018-10-07T07:44:18.981Z,1008.28
2018-10-07T07:44:59.538Z,1008.39
2018-10-07T07:45:40.101Z,1008.39
2018-10-07T07:46:20.663Z,1008.39
2018-10-07T07:47:01.237Z,1008.42
2018-10-07T07:47:41.804Z,1008.44
2018-10-07T07:48:22.363Z,1008.42
2018-10-07T07:49:02.961Z,1008.48
2018-10-07T07:49:43.504Z,1008.55
2018-10-07T07:50:24.052Z,1008.53
2018-10-07T07:51:04.615Z,1008.6
2018-10-07T07:51:45.201Z,1008.57
2018-10-07T07:52:25.788Z,1008.63
2018-10-07T07:53:06.365Z,1008.64
2018-10-07T07:53:46.925Z,1008.62
2018-10-07T07:54:27.505Z,1008.71
2018-10-07T07:55:08.062Z,1008.7
2018-10-07T07:55:48.623Z,1008.75
2018-10-07T07:56:29.187Z,1008.79
2018-10-07T07:57:09.752Z,1008.82
2018-10-07T07:57:50.321Z,1008.83
2018-10-07T07:58:30.894Z,1008.86
2018-10-07T07:59:11.449Z,1008.9
2018-10-07T07:59:52.010Z,1008.96
2018-10-07T08:00:32.568Z,1008.99
2018-10-07T08:01:13.127Z,1009
2018-10-07T08:01:53.730Z,1008.97
2018-10-07T08:02:34.295Z,1008.95
2018-10-07T08:03:14.888Z,1009.01
2018-10-07T08:03:55.455Z,1009
2018-10-07T08:04:36.009Z,1008.98
2018-10-07T08:05:16.583Z,1008.99
2018-10-07T08:05:57.145Z,1009.02
2018-10-07T08:06:37.730Z,1008.99
2018-10-07T08:07:18.306Z,1009.06
2018-10-07T08:07:58.865Z,1009.07
2018-10-07T08:08:39.510Z,1009.08
2018-10-07T08:09:19.995Z,1009.04
2018-10-07T08:10:00.551Z,1009.1
2018-10-07T08:10:41.132Z,1009.07
2018-10-07T08:11:21.726Z,1009.09
2018-10-07T08:12:02.287Z,1009.09
2018-10-07T08:12:42.851Z,1009.05
2018-10-07T08:13:23.403Z,1009.15